sensor_id;sensor_type;location;lat;lon;timestamp;temperature;humidity
43673;DHT22;41723;49.326;8.430;2023-04-06T00:02:06;6.50;94.50
43673;DHT22;41723;49.326;8.430;2023-04-06T00:04:31;6.50;94.40
43673;DHT22;41723;49.326;8.430;2023-04-06T00:06:57;6.50;94.40
43673;DHT22;41723;49.326;8.430;2023-04-06T00:09:22;6.50;94.40
43673;DHT22;41723;49.326;8.430;2023-04-06T00:11:48;6.50;94.20
43673;DHT22;41723;49.326;8.430;2023-04-06T00:14:13;6.60;94.80
43673;DHT22;41723;49.326;8.430;2023-04-06T00:16:41;6.60;94.90
43673;DHT22;41723;49.326;8.430;2023-04-06T00:19:06;6.30;94.60
43673;DHT22;41723;49.326;8.430;2023-04-06T00:21:32;6.30;95.00
43673;DHT22;41723;49.326;8.430;2023-04-06T00:23:58;6.40;95.20
43673;DHT22;41723;49.326;8.430;2023-04-06T00:26:23;6.50;95.30
43673;DHT22;41723;49.326;8.430;2023-04-06T00:28:49;6.50;95.10
43673;DHT22;41723;49.326;8.430;2023-04-06T00:31:17;6.40;94.90
43673;DHT22;41723;49.326;8.430;2023-04-06T00:33:43;6.30;94.90
43673;DHT22;41723;49.326;8.430;2023-04-06T00:36:08;6.20;94.80
43673;DHT22;41723;49.326;8.430;2023-04-06T00:38:34;6.10;94.90
43673;DHT22;41723;49.326;8.430;2023-04-06T00:40:59;6.20;94.90
43673;DHT22;41723;49.326;8.430;2023-04-06T00:43:25;6.00;95.00
43673;DHT22;41723;49.326;8.430;2023-04-06T00:45:51;6.00;95.30
43673;DHT22;41723;49.326;8.430;2023-04-06T00:48:16;6.10;95.00
43673;DHT22;41723;49.326;8.430;2023-04-06T00:50:43;6.10;94.90
43673;DHT22;41723;49.326;8.430;2023-04-06T00:53:08;6.10;94.20
43673;DHT22;41723;49.326;8.430;2023-04-06T00:55:34;6.20;94.70
43673;DHT22;41723;49.326;8.430;2023-04-06T00:58:01;6.30;94.10
43673;DHT22;41723;49.326;8.430;2023-04-06T01:00:30;6.20;93.80
43673;DHT22;41723;49.326;8.430;2023-04-06T01:02:59;6.20;93.80
43673;DHT22;41723;49.326;8.430;2023-04-06T01:05:34;6.20;93.90
43673;DHT22;41723;49.326;8.430;2023-04-06T01:08:06;6.20;93.80
43673;DHT22;41723;49.326;8.430;2023-04-06T01:10:32;6.20;94.00
43673;DHT22;41723;49.326;8.430;2023-04-06T01:13:05;6.30;93.80
43673;DHT22;41723;49.326;8.430;2023-04-06T01:15:51;6.20;94.10
43673;DHT22;41723;49.326;8.430;2023-04-06T01:18:26;6.20;93.90
43673;DHT22;41723;49.326;8.430;2023-04-06T01:20:58;6.20;93.80
43673;DHT22;41723;49.326;8.430;2023-04-06T01:23:26;6.20;93.70
43673;DHT22;41723;49.326;8.430;2023-04-06T01:25:52;6.20;93.60
43673;DHT22;41723;49.326;8.430;2023-04-06T01:28:17;6.20;93.90
43673;DHT22;41723;49.326;8.430;2023-04-06T01:30:54;6.10;94.40
43673;DHT22;41723;49.326;8.430;2023-04-06T01:33:39;6.00;94.80
43673;DHT22;41723;49.326;8.430;2023-04-06T01:36:09;6.00;94.90
43673;DHT22;41723;49.326;8.430;2023-04-06T01:38:34;6.10;94.70
43673;DHT22;41723;49.326;8.430;2023-04-06T01:41:01;6.10;94.50
43673;DHT22;41723;49.326;8.430;2023-04-06T01:43:31;6.20;94.50
43673;DHT22;41723;49.326;8.430;2023-04-06T01:46:04;6.10;94.40
43673;DHT22;41723;49.326;8.430;2023-04-06T01:48:34;6.20;94.60
43673;DHT22;41723;49.326;8.430;2023-04-06T01:51:05;6.10;94.20
43673;DHT22;41723;49.326;8.430;2023-04-06T01:53:35;6.10;94.40
43673;DHT22;41723;49.326;8.430;2023-04-06T01:56:05;6.00;94.30
43673;DHT22;41723;49.326;8.430;2023-04-06T01:58:35;6.00;94.00
43673;DHT22;41723;49.326;8.430;2023-04-06T02:01:02;6.00;94.30
43673;DHT22;41723;49.326;8.430;2023-04-06T02:03:32;6.00;94.20
43673;DHT22;41723;49.326;8.430;2023-04-06T02:06:05;6.00;94.60
43673;DHT22;41723;49.326;8.430;2023-04-06T02:08:35;6.00;94.50
43673;DHT22;41723;49.326;8.430;2023-04-06T02:11:01;6.00;94.50
43673;DHT22;41723;49.326;8.430;2023-04-06T02:13:32;6.00;94.80
43673;DHT22;41723;49.326;8.430;2023-04-06T02:15:58;6.00;94.70
43673;DHT22;41723;49.326;8.430;2023-04-06T02:18:25;5.70;94.50
43673;DHT22;41723;49.326;8.430;2023-04-06T02:20:51;5.50;94.90
43673;DHT22;41723;49.326;8.430;2023-04-06T02:23:17;5.50;95.00
43673;DHT22;41723;49.326;8.430;2023-04-06T02:25:42;5.60;94.90
43673;DHT22;41723;49.326;8.430;2023-04-06T02:28:08;5.50;94.80
43673;DHT22;41723;49.326;8.430;2023-04-06T02:30:33;5.60;95.20
43673;DHT22;41723;49.326;8.430;2023-04-06T02:33:00;5.60;95.20
43673;DHT22;41723;49.326;8.430;2023-04-06T02:35:27;5.60;95.00
43673;DHT22;41723;49.326;8.430;2023-04-06T02:37:54;5.60;95.30
43673;DHT22;41723;49.326;8.430;2023-04-06T02:40:20;5.70;95.00
43673;DHT22;41723;49.326;8.430;2023-04-06T02:42:46;5.70;95.30
43673;DHT22;41723;49.326;8.430;2023-04-06T02:45:13;5.60;94.60
43673;DHT22;41723;49.326;8.430;2023-04-06T02:47:42;5.60;94.80
43673;DHT22;41723;49.326;8.430;2023-04-06T02:50:09;5.50;94.60
43673;DHT22;41723;49.326;8.430;2023-04-06T02:52:42;5.50;94.70
43673;DHT22;41723;49.326;8.430;2023-04-06T02:55:09;5.50;94.20
43673;DHT22;41723;49.326;8.430;2023-04-06T02:57:35;5.40;94.50
43673;DHT22;41723;49.326;8.430;2023-04-06T03:00:01;5.30;94.70
43673;DHT22;41723;49.326;8.430;2023-04-06T03:02:34;5.40;95.00
43673;DHT22;41723;49.326;8.430;2023-04-06T03:05:06;5.40;94.80
43673;DHT22;41723;49.326;8.430;2023-04-06T03:07:36;5.40;94.90
43673;DHT22;41723;49.326;8.430;2023-04-06T03:10:02;5.30;95.00
43673;DHT22;41723;49.326;8.430;2023-04-06T03:12:30;5.40;95.10
43673;DHT22;41723;49.326;8.430;2023-04-06T03:15:24;5.40;95.20
43673;DHT22;41723;49.326;8.430;2023-04-06T03:17:56;5.40;95.20
43673;DHT22;41723;49.326;8.430;2023-04-06T03:20:36;5.30;95.40
43673;DHT22;41723;49.326;8.430;2023-04-06T03:23:02;5.20;95.70
43673;DHT22;41723;49.326;8.430;2023-04-06T03:25:32;5.20;95.90
43673;DHT22;41723;49.326;8.430;2023-04-06T03:28:02;5.30;96.10
43673;DHT22;41723;49.326;8.430;2023-04-06T03:30:29;5.30;96.10
43673;DHT22;41723;49.326;8.430;2023-04-06T03:32:55;5.30;95.80
43673;DHT22;41723;49.326;8.430;2023-04-06T03:35:23;5.20;95.90
43673;DHT22;41723;49.326;8.430;2023-04-06T03:37:49;5.20;96.20
43673;DHT22;41723;49.326;8.430;2023-04-06T03:40:15;5.20;96.30
43673;DHT22;41723;49.326;8.430;2023-04-06T03:42:42;5.00;96.30
43673;DHT22;41723;49.326;8.430;2023-04-06T03:45:12;5.10;96.60
43673;DHT22;41723;49.326;8.430;2023-04-06T03:47:46;5.00;96.30
43673;DHT22;41723;49.326;8.430;2023-04-06T03:50:12;5.10;96.40
43673;DHT22;41723;49.326;8.430;2023-04-06T03:52:38;5.10;96.70
43673;DHT22;41723;49.326;8.430;2023-04-06T03:55:03;5.20;96.30
43673;DHT22;41723;49.326;8.430;2023-04-06T03:57:29;5.10;96.40
43673;DHT22;41723;49.326;8.430;2023-04-06T03:59:56;5.10;96.40
43673;DHT22;41723;49.326;8.430;2023-04-06T04:02:25;5.10;96.30
43673;DHT22;41723;49.326;8.430;2023-04-06T04:04:50;5.10;96.10
43673;DHT22;41723;49.326;8.430;2023-04-06T04:07:17;5.00;96.00
43673;DHT22;41723;49.326;8.430;2023-04-06T04:09:42;5.10;96.10
43673;DHT22;41723;49.326;8.430;2023-04-06T04:12:08;5.10;96.20
43673;DHT22;41723;49.326;8.430;2023-04-06T04:14:34;5.00;96.30
43673;DHT22;41723;49.326;8.430;2023-04-06T04:17:00;5.00;96.40
43673;DHT22;41723;49.326;8.430;2023-04-06T04:19:26;5.00;96.30
43673;DHT22;41723;49.326;8.430;2023-04-06T04:21:51;5.00;96.50
43673;DHT22;41723;49.326;8.430;2023-04-06T04:24:24;5.00;96.50
43673;DHT22;41723;49.326;8.430;2023-04-06T04:26:50;5.00;96.40
43673;DHT22;41723;49.326;8.430;2023-04-06T04:29:16;4.90;96.50
43673;DHT22;41723;49.326;8.430;2023-04-06T04:31:42;4.90;96.50
43673;DHT22;41723;49.326;8.430;2023-04-06T04:34:14;4.80;96.60
43673;DHT22;41723;49.326;8.430;2023-04-06T04:36:40;4.70;96.90
43673;DHT22;41723;49.326;8.430;2023-04-06T04:39:09;4.80;96.80
43673;DHT22;41723;49.326;8.430;2023-04-06T04:41:39;4.80;96.70
43673;DHT22;41723;49.326;8.430;2023-04-06T04:44:08;4.90;96.50
43673;DHT22;41723;49.326;8.430;2023-04-06T04:46:34;4.90;96.40
43673;DHT22;41723;49.326;8.430;2023-04-06T04:48:59;4.90;96.30
43673;DHT22;41723;49.326;8.430;2023-04-06T04:51:25;4.90;96.00
43673;DHT22;41723;49.326;8.430;2023-04-06T04:54:14;4.90;96.20
43673;DHT22;41723;49.326;8.430;2023-04-06T04:56:41;4.90;96.10
43673;DHT22;41723;49.326;8.430;2023-04-06T04:59:34;4.90;96.20
43673;DHT22;41723;49.326;8.430;2023-04-06T05:02:07;4.80;96.20
43673;DHT22;41723;49.326;8.430;2023-04-06T05:04:42;4.80;96.10
43673;DHT22;41723;49.326;8.430;2023-04-06T05:07:12;4.90;96.30
43673;DHT22;41723;49.326;8.430;2023-04-06T05:09:39;4.80;96.20
43673;DHT22;41723;49.326;8.430;2023-04-06T05:12:05;4.90;96.30
43673;DHT22;41723;49.326;8.430;2023-04-06T05:14:37;4.80;96.50
43673;DHT22;41723;49.326;8.430;2023-04-06T05:17:06;4.80;96.60
43673;DHT22;41723;49.326;8.430;2023-04-06T05:19:31;4.80;96.60
43673;DHT22;41723;49.326;8.430;2023-04-06T05:21:57;4.70;96.80
43673;DHT22;41723;49.326;8.430;2023-04-06T05:24:23;4.70;97.00
43673;DHT22;41723;49.326;8.430;2023-04-06T05:26:49;4.70;96.90
43673;DHT22;41723;49.326;8.430;2023-04-06T05:29:20;4.70;97.00
43673;DHT22;41723;49.326;8.430;2023-04-06T05:31:46;4.70;97.10
43673;DHT22;41723;49.326;8.430;2023-04-06T05:34:12;4.70;97.20
43673;DHT22;41723;49.326;8.430;2023-04-06T05:36:38;4.70;97.20
43673;DHT22;41723;49.326;8.430;2023-04-06T05:39:14;4.70;97.20
43673;DHT22;41723;49.326;8.430;2023-04-06T05:41:48;4.70;97.10
43673;DHT22;41723;49.326;8.430;2023-04-06T05:44:15;4.70;97.10
43673;DHT22;41723;49.326;8.430;2023-04-06T05:46:45;4.80;97.00
43673;DHT22;41723;49.326;8.430;2023-04-06T05:49:14;4.80;96.80
43673;DHT22;41723;49.326;8.430;2023-04-06T05:51:39;4.80;96.70
43673;DHT22;41723;49.326;8.430;2023-04-06T05:54:05;4.80;96.70
43673;DHT22;41723;49.326;8.430;2023-04-06T05:56:31;4.80;96.60
43673;DHT22;41723;49.326;8.430;2023-04-06T05:58:58;4.80;96.60
43673;DHT22;41723;49.326;8.430;2023-04-06T06:01:27;4.80;96.80
43673;DHT22;41723;49.326;8.430;2023-04-06T06:03:54;4.90;96.70
43673;DHT22;41723;49.326;8.430;2023-04-06T06:06:20;4.90;96.60
43673;DHT22;41723;49.326;8.430;2023-04-06T06:09:05;4.90;96.50
43673;DHT22;41723;49.326;8.430;2023-04-06T06:11:35;4.90;96.30
43673;DHT22;41723;49.326;8.430;2023-04-06T06:14:02;5.00;96.70
43673;DHT22;41723;49.326;8.430;2023-04-06T06:16:30;4.70;96.50
43673;DHT22;41723;49.326;8.430;2023-04-06T06:18:57;4.70;96.80
43673;DHT22;41723;49.326;8.430;2023-04-06T06:21:23;4.80;97.10
43673;DHT22;41723;49.326;8.430;2023-04-06T06:23:49;4.70;96.90
43673;DHT22;41723;49.326;8.430;2023-04-06T06:26:18;4.70;96.90
43673;DHT22;41723;49.326;8.430;2023-04-06T06:28:44;4.80;96.90
43673;DHT22;41723;49.326;8.430;2023-04-06T06:31:11;4.90;96.90
43673;DHT22;41723;49.326;8.430;2023-04-06T06:33:37;5.00;96.70
43673;DHT22;41723;49.326;8.430;2023-04-06T06:36:03;5.10;96.80
43673;DHT22;41723;49.326;8.430;2023-04-06T06:38:29;5.10;96.70
43673;DHT22;41723;49.326;8.430;2023-04-06T06:40:55;5.00;96.70
43673;DHT22;41723;49.326;8.430;2023-04-06T06:43:24;5.00;96.80
43673;DHT22;41723;49.326;8.430;2023-04-06T06:45:56;5.20;96.70
43673;DHT22;41723;49.326;8.430;2023-04-06T06:48:21;5.30;96.80
43673;DHT22;41723;49.326;8.430;2023-04-06T06:50:47;5.20;96.40
43673;DHT22;41723;49.326;8.430;2023-04-06T06:53:13;5.20;96.60
43673;DHT22;41723;49.326;8.430;2023-04-06T06:55:39;5.00;96.60
43673;DHT22;41723;49.326;8.430;2023-04-06T06:58:05;5.00;97.00
43673;DHT22;41723;49.326;8.430;2023-04-06T07:00:31;4.90;96.90
43673;DHT22;41723;49.326;8.430;2023-04-06T07:02:57;5.10;97.40
43673;DHT22;41723;49.326;8.430;2023-04-06T07:05:23;5.50;99.90
43673;DHT22;41723;49.326;8.430;2023-04-06T07:07:48;6.10;99.90
43673;DHT22;41723;49.326;8.430;2023-04-06T07:10:14;6.00;97.40
43673;DHT22;41723;49.326;8.430;2023-04-06T07:12:40;6.00;96.90
43673;DHT22;41723;49.326;8.430;2023-04-06T07:15:05;5.60;96.10
43673;DHT22;41723;49.326;8.430;2023-04-06T07:17:32;6.10;99.90
43673;DHT22;41723;49.326;8.430;2023-04-06T07:19:59;5.70;96.80
43673;DHT22;41723;49.326;8.430;2023-04-06T07:22:24;5.80;97.70
43673;DHT22;41723;49.326;8.430;2023-04-06T07:24:51;5.90;97.00
43673;DHT22;41723;49.326;8.430;2023-04-06T07:27:17;5.90;96.40
43673;DHT22;41723;49.326;8.430;2023-04-06T07:29:44;5.80;96.70
43673;DHT22;41723;49.326;8.430;2023-04-06T07:32:10;5.90;96.90
43673;DHT22;41723;49.326;8.430;2023-04-06T07:34:36;5.90;96.80
43673;DHT22;41723;49.326;8.430;2023-04-06T07:37:02;5.70;96.90
43673;DHT22;41723;49.326;8.430;2023-04-06T07:39:28;5.90;96.90
43673;DHT22;41723;49.326;8.430;2023-04-06T07:41:55;6.10;96.90
43673;DHT22;41723;49.326;8.430;2023-04-06T07:44:21;6.00;96.50
43673;DHT22;41723;49.326;8.430;2023-04-06T07:46:47;6.10;96.50
43673;DHT22;41723;49.326;8.430;2023-04-06T07:49:13;6.20;96.70
43673;DHT22;41723;49.326;8.430;2023-04-06T07:51:39;6.30;96.90
43673;DHT22;41723;49.326;8.430;2023-04-06T07:54:05;6.30;96.20
43673;DHT22;41723;49.326;8.430;2023-04-06T07:56:31;6.20;96.30
43673;DHT22;41723;49.326;8.430;2023-04-06T07:58:57;6.30;96.20
43673;DHT22;41723;49.326;8.430;2023-04-06T08:01:23;6.50;96.20
43673;DHT22;41723;49.326;8.430;2023-04-06T08:03:49;6.50;96.00
43673;DHT22;41723;49.326;8.430;2023-04-06T08:06:15;6.60;96.30
43673;DHT22;41723;49.326;8.430;2023-04-06T08:08:41;6.60;96.20
43673;DHT22;41723;49.326;8.430;2023-04-06T08:11:07;6.70;95.70
43673;DHT22;41723;49.326;8.430;2023-04-06T08:13:33;6.70;95.80
43673;DHT22;41723;49.326;8.430;2023-04-06T08:15:59;6.70;95.80
43673;DHT22;41723;49.326;8.430;2023-04-06T08:18:25;6.90;95.70
43673;DHT22;41723;49.326;8.430;2023-04-06T08:20:51;6.90;95.80
43673;DHT22;41723;49.326;8.430;2023-04-06T08:23:16;7.00;95.60
43673;DHT22;41723;49.326;8.430;2023-04-06T08:25:42;6.90;95.30
43673;DHT22;41723;49.326;8.430;2023-04-06T08:28:08;7.00;95.40
43673;DHT22;41723;49.326;8.430;2023-04-06T08:30:35;7.10;95.40
43673;DHT22;41723;49.326;8.430;2023-04-06T08:33:00;7.30;95.40
43673;DHT22;41723;49.326;8.430;2023-04-06T08:35:26;7.30;95.40
43673;DHT22;41723;49.326;8.430;2023-04-06T08:37:52;7.50;95.10
43673;DHT22;41723;49.326;8.430;2023-04-06T08:40:18;7.60;95.10
43673;DHT22;41723;49.326;8.430;2023-04-06T08:42:50;7.70;95.20
43673;DHT22;41723;49.326;8.430;2023-04-06T08:45:16;7.90;94.60
43673;DHT22;41723;49.326;8.430;2023-04-06T08:47:41;8.00;94.80
43673;DHT22;41723;49.326;8.430;2023-04-06T08:50:07;8.10;94.30
43673;DHT22;41723;49.326;8.430;2023-04-06T08:52:33;8.20;94.30
43673;DHT22;41723;49.326;8.430;2023-04-06T08:54:59;8.10;94.00
43673;DHT22;41723;49.326;8.430;2023-04-06T08:57:25;8.10;94.30
43673;DHT22;41723;49.326;8.430;2023-04-06T08:59:51;8.30;94.30
43673;DHT22;41723;49.326;8.430;2023-04-06T09:02:17;8.50;94.40
43673;DHT22;41723;49.326;8.430;2023-04-06T09:04:44;8.60;94.10
43673;DHT22;41723;49.326;8.430;2023-04-06T09:07:11;8.70;93.40
43673;DHT22;41723;49.326;8.430;2023-04-06T09:09:36;8.50;92.90
43673;DHT22;41723;49.326;8.430;2023-04-06T09:12:02;8.60;93.30
43673;DHT22;41723;49.326;8.430;2023-04-06T09:14:34;8.60;93.30
43673;DHT22;41723;49.326;8.430;2023-04-06T09:17:01;8.70;93.40
43673;DHT22;41723;49.326;8.430;2023-04-06T09:19:26;8.90;93.40
43673;DHT22;41723;49.326;8.430;2023-04-06T09:22:05;9.00;92.30
43673;DHT22;41723;49.326;8.430;2023-04-06T09:24:46;9.10;92.60
43673;DHT22;41723;49.326;8.430;2023-04-06T09:27:12;9.20;92.70
43673;DHT22;41723;49.326;8.430;2023-04-06T09:29:38;9.30;93.10
43673;DHT22;41723;49.326;8.430;2023-04-06T09:32:04;9.50;92.10
43673;DHT22;41723;49.326;8.430;2023-04-06T09:34:30;9.60;91.00
43673;DHT22;41723;49.326;8.430;2023-04-06T09:36:56;9.60;91.20
43673;DHT22;41723;49.326;8.430;2023-04-06T09:39:22;9.70;90.70
43673;DHT22;41723;49.326;8.430;2023-04-06T09:41:50;9.90;90.90
43673;DHT22;41723;49.326;8.430;2023-04-06T09:44:15;10.00;90.50
43673;DHT22;41723;49.326;8.430;2023-04-06T09:46:41;10.10;90.10
43673;DHT22;41723;49.326;8.430;2023-04-06T09:49:07;10.10;90.10
43673;DHT22;41723;49.326;8.430;2023-04-06T09:54:02;10.40;88.90
43673;DHT22;41723;49.326;8.430;2023-04-06T09:56:51;10.30;88.70
43673;DHT22;41723;49.326;8.430;2023-04-06T10:02:05;10.40;87.90
43673;DHT22;41723;49.326;8.430;2023-04-06T10:04:43;10.50;87.10
43673;DHT22;41723;49.326;8.430;2023-04-06T10:07:09;10.60;86.70
43673;DHT22;41723;49.326;8.430;2023-04-06T10:09:37;10.70;86.20
43673;DHT22;41723;49.326;8.430;2023-04-06T10:12:03;10.80;85.40
43673;DHT22;41723;49.326;8.430;2023-04-06T10:14:30;10.80;85.70
43673;DHT22;41723;49.326;8.430;2023-04-06T10:16:56;11.10;86.20
43673;DHT22;41723;49.326;8.430;2023-04-06T10:19:24;11.20;85.90
43673;DHT22;41723;49.326;8.430;2023-04-06T10:21:52;11.20;83.00
43673;DHT22;41723;49.326;8.430;2023-04-06T10:24:20;11.50;85.40
43673;DHT22;41723;49.326;8.430;2023-04-06T10:27:01;11.80;82.70
43673;DHT22;41723;49.326;8.430;2023-04-06T10:29:27;11.70;84.10
43673;DHT22;41723;49.326;8.430;2023-04-06T10:31:53;11.80;83.00
43673;DHT22;41723;49.326;8.430;2023-04-06T10:34:20;12.00;82.00
43673;DHT22;41723;49.326;8.430;2023-04-06T10:36:46;12.10;81.40
43673;DHT22;41723;49.326;8.430;2023-04-06T10:39:12;12.30;82.80
43673;DHT22;41723;49.326;8.430;2023-04-06T10:44:06;12.50;80.80
43673;DHT22;41723;49.326;8.430;2023-04-06T10:46:32;12.40;80.20
43673;DHT22;41723;49.326;8.430;2023-04-06T10:49:32;12.30;82.30
43673;DHT22;41723;49.326;8.430;2023-04-06T10:51:54;12.50;80.90
43673;DHT22;41723;49.326;8.430;2023-04-06T10:54:21;12.70;80.30
43673;DHT22;41723;49.326;8.430;2023-04-06T10:56:48;12.60;79.20
43673;DHT22;41723;49.326;8.430;2023-04-06T10:59:14;12.70;81.80
43673;DHT22;41723;49.326;8.430;2023-04-06T11:01:44;13.00;80.80
43673;DHT22;41723;49.326;8.430;2023-04-06T11:04:09;13.10;78.50
43673;DHT22;41723;49.326;8.430;2023-04-06T11:06:39;13.10;76.50
43673;DHT22;41723;49.326;8.430;2023-04-06T11:09:04;13.10;77.00
43673;DHT22;41723;49.326;8.430;2023-04-06T11:11:30;13.20;75.70
43673;DHT22;41723;49.326;8.430;2023-04-06T11:13:57;13.40;75.10
43673;DHT22;41723;49.326;8.430;2023-04-06T11:16:24;13.30;74.90
43673;DHT22;41723;49.326;8.430;2023-04-06T11:18:51;13.30;73.20
43673;DHT22;41723;49.326;8.430;2023-04-06T11:21:17;13.10;74.80
43673;DHT22;41723;49.326;8.430;2023-04-06T11:23:43;13.30;74.00
43673;DHT22;41723;49.326;8.430;2023-04-06T11:26:12;13.20;74.00
43673;DHT22;41723;49.326;8.430;2023-04-06T11:28:38;13.30;75.10
43673;DHT22;41723;49.326;8.430;2023-04-06T11:31:05;13.40;73.40
43673;DHT22;41723;49.326;8.430;2023-04-06T11:33:34;13.20;74.00
43673;DHT22;41723;49.326;8.430;2023-04-06T11:36:00;13.20;73.80
43673;DHT22;41723;49.326;8.430;2023-04-06T11:38:26;13.40;73.50
43673;DHT22;41723;49.326;8.430;2023-04-06T11:40:52;13.50;71.10
43673;DHT22;41723;49.326;8.430;2023-04-06T11:43:18;13.40;71.20
43673;DHT22;41723;49.326;8.430;2023-04-06T11:45:50;13.60;71.20
43673;DHT22;41723;49.326;8.430;2023-04-06T11:48:24;13.60;70.60
43673;DHT22;41723;49.326;8.430;2023-04-06T11:50:54;13.70;70.00
43673;DHT22;41723;49.326;8.430;2023-04-06T11:53:20;13.60;71.30
43673;DHT22;41723;49.326;8.430;2023-04-06T11:55:46;13.60;71.30
43673;DHT22;41723;49.326;8.430;2023-04-06T11:58:12;13.70;72.70
43673;DHT22;41723;49.326;8.430;2023-04-06T12:00:38;13.70;72.00
43673;DHT22;41723;49.326;8.430;2023-04-06T12:03:03;13.80;74.80
43673;DHT22;41723;49.326;8.430;2023-04-06T12:05:29;13.70;72.50
43673;DHT22;41723;49.326;8.430;2023-04-06T12:07:55;13.50;71.40
43673;DHT22;41723;49.326;8.430;2023-04-06T12:10:20;13.50;71.20
43673;DHT22;41723;49.326;8.430;2023-04-06T12:12:46;13.60;72.50
43673;DHT22;41723;49.326;8.430;2023-04-06T12:15:12;13.90;70.20
43673;DHT22;41723;49.326;8.430;2023-04-06T12:17:37;13.80;68.50
43673;DHT22;41723;49.326;8.430;2023-04-06T12:20:03;13.80;69.70
43673;DHT22;41723;49.326;8.430;2023-04-06T12:22:29;14.10;71.10
43673;DHT22;41723;49.326;8.430;2023-04-06T12:24:54;14.40;71.80
43673;DHT22;41723;49.326;8.430;2023-04-06T12:27:20;14.60;69.30
43673;DHT22;41723;49.326;8.430;2023-04-06T12:29:46;14.60;71.50
43673;DHT22;41723;49.326;8.430;2023-04-06T12:32:12;14.60;64.90
43673;DHT22;41723;49.326;8.430;2023-04-06T12:34:38;14.80;68.00
43673;DHT22;41723;49.326;8.430;2023-04-06T12:37:03;14.90;65.30
43673;DHT22;41723;49.326;8.430;2023-04-06T12:39:29;15.20;67.60
43673;DHT22;41723;49.326;8.430;2023-04-06T12:41:55;15.10;63.30
43673;DHT22;41723;49.326;8.430;2023-04-06T12:44:21;15.10;64.10
43673;DHT22;41723;49.326;8.430;2023-04-06T12:46:47;15.20;65.00
43673;DHT22;41723;49.326;8.430;2023-04-06T12:49:12;15.20;65.10
43673;DHT22;41723;49.326;8.430;2023-04-06T12:51:38;14.90;63.40
43673;DHT22;41723;49.326;8.430;2023-04-06T12:54:03;14.90;64.30
43673;DHT22;41723;49.326;8.430;2023-04-06T12:56:29;14.80;62.10
43673;DHT22;41723;49.326;8.430;2023-04-06T12:58:56;14.60;60.90
43673;DHT22;41723;49.326;8.430;2023-04-06T13:01:21;14.80;62.00
43673;DHT22;41723;49.326;8.430;2023-04-06T13:03:47;14.80;61.00
43673;DHT22;41723;49.326;8.430;2023-04-06T13:06:12;14.80;61.50
43673;DHT22;41723;49.326;8.430;2023-04-06T13:08:40;15.00;63.60
43673;DHT22;41723;49.326;8.430;2023-04-06T13:11:06;14.80;60.10
43673;DHT22;41723;49.326;8.430;2023-04-06T13:13:34;14.90;60.60
43673;DHT22;41723;49.326;8.430;2023-04-06T13:16:01;14.90;64.70
43673;DHT22;41723;49.326;8.430;2023-04-06T13:18:28;14.80;61.20
43673;DHT22;41723;49.326;8.430;2023-04-06T13:20:55;14.80;63.00
43673;DHT22;41723;49.326;8.430;2023-04-06T13:23:21;14.70;61.10
43673;DHT22;41723;49.326;8.430;2023-04-06T13:25:47;14.40;60.30
43673;DHT22;41723;49.326;8.430;2023-04-06T13:28:12;14.30;60.80
43673;DHT22;41723;49.326;8.430;2023-04-06T13:30:39;14.30;61.50
43673;DHT22;41723;49.326;8.430;2023-04-06T13:33:04;14.20;61.70
43673;DHT22;41723;49.326;8.430;2023-04-06T13:35:31;14.20;62.20
43673;DHT22;41723;49.326;8.430;2023-04-06T13:37:57;14.20;60.30
43673;DHT22;41723;49.326;8.430;2023-04-06T13:40:23;14.20;61.50
43673;DHT22;41723;49.326;8.430;2023-04-06T13:42:48;14.20;61.20
43673;DHT22;41723;49.326;8.430;2023-04-06T13:45:14;14.10;62.30
43673;DHT22;41723;49.326;8.430;2023-04-06T13:47:40;14.10;61.10
43673;DHT22;41723;49.326;8.430;2023-04-06T13:50:06;14.10;61.10
43673;DHT22;41723;49.326;8.430;2023-04-06T13:52:32;14.20;61.60
43673;DHT22;41723;49.326;8.430;2023-04-06T13:54:57;14.20;61.10
43673;DHT22;41723;49.326;8.430;2023-04-06T13:57:23;14.30;61.80
43673;DHT22;41723;49.326;8.430;2023-04-06T13:59:49;14.20;62.10
43673;DHT22;41723;49.326;8.430;2023-04-06T14:02:15;14.20;63.00
43673;DHT22;41723;49.326;8.430;2023-04-06T14:04:41;14.30;63.30
43673;DHT22;41723;49.326;8.430;2023-04-06T14:07:07;14.30;62.50
43673;DHT22;41723;49.326;8.430;2023-04-06T14:09:32;14.20;62.00
43673;DHT22;41723;49.326;8.430;2023-04-06T14:11:58;14.10;62.70
43673;DHT22;41723;49.326;8.430;2023-04-06T14:14:24;14.20;61.80
43673;DHT22;41723;49.326;8.430;2023-04-06T14:16:49;14.40;63.40
43673;DHT22;41723;49.326;8.430;2023-04-06T14:19:16;14.30;60.70
43673;DHT22;41723;49.326;8.430;2023-04-06T14:21:46;14.30;59.60
43673;DHT22;41723;49.326;8.430;2023-04-06T14:24:12;14.20;59.50
43673;DHT22;41723;49.326;8.430;2023-04-06T14:26:39;14.20;59.50
43673;DHT22;41723;49.326;8.430;2023-04-06T14:29:05;14.20;58.80
43673;DHT22;41723;49.326;8.430;2023-04-06T14:31:31;14.20;59.00
43673;DHT22;41723;49.326;8.430;2023-04-06T14:33:57;14.10;58.00
43673;DHT22;41723;49.326;8.430;2023-04-06T14:36:23;14.20;58.70
43673;DHT22;41723;49.326;8.430;2023-04-06T14:38:49;14.30;59.40
43673;DHT22;41723;49.326;8.430;2023-04-06T14:41:18;14.20;59.10
43673;DHT22;41723;49.326;8.430;2023-04-06T14:43:44;14.20;58.00
43673;DHT22;41723;49.326;8.430;2023-04-06T14:46:10;14.20;57.80
43673;DHT22;41723;49.326;8.430;2023-04-06T14:48:36;14.20;59.00
43673;DHT22;41723;49.326;8.430;2023-04-06T14:51:02;14.10;56.90
43673;DHT22;41723;49.326;8.430;2023-04-06T14:53:28;14.00;58.40
43673;DHT22;41723;49.326;8.430;2023-04-06T14:55:54;14.10;56.50
43673;DHT22;41723;49.326;8.430;2023-04-06T14:58:20;14.10;57.80
43673;DHT22;41723;49.326;8.430;2023-04-06T15:00:46;14.00;56.90
43673;DHT22;41723;49.326;8.430;2023-04-06T15:03:12;14.10;58.80
43673;DHT22;41723;49.326;8.430;2023-04-06T15:05:38;14.10;58.50
43673;DHT22;41723;49.326;8.430;2023-04-06T15:08:03;14.20;59.20
43673;DHT22;41723;49.326;8.430;2023-04-06T15:10:32;14.20;60.70
43673;DHT22;41723;49.326;8.430;2023-04-06T15:12:58;14.20;59.70
43673;DHT22;41723;49.326;8.430;2023-04-06T15:15:23;14.20;59.90
43673;DHT22;41723;49.326;8.430;2023-04-06T15:17:49;14.20;58.20
43673;DHT22;41723;49.326;8.430;2023-04-06T15:20:15;14.00;59.70
43673;DHT22;41723;49.326;8.430;2023-04-06T15:22:41;14.00;58.30
43673;DHT22;41723;49.326;8.430;2023-04-06T15:25:06;14.00;58.40
43673;DHT22;41723;49.326;8.430;2023-04-06T15:27:32;14.00;60.40
43673;DHT22;41723;49.326;8.430;2023-04-06T15:29:58;14.00;61.80
43673;DHT22;41723;49.326;8.430;2023-04-06T15:32:24;14.00;61.30
43673;DHT22;41723;49.326;8.430;2023-04-06T15:34:50;14.00;62.30
43673;DHT22;41723;49.326;8.430;2023-04-06T15:37:15;13.90;62.00
43673;DHT22;41723;49.326;8.430;2023-04-06T15:39:41;13.80;63.20
43673;DHT22;41723;49.326;8.430;2023-04-06T15:42:08;13.80;62.50
43673;DHT22;41723;49.326;8.430;2023-04-06T15:44:33;13.80;63.20
43673;DHT22;41723;49.326;8.430;2023-04-06T15:46:59;13.80;62.60
43673;DHT22;41723;49.326;8.430;2023-04-06T15:49:25;13.80;62.80